createdAt,value
2023-04-21T00:01:03.855Z,12.00
2023-04-21T00:03:34.044Z,12.73
2023-04-21T00:06:02.652Z,10.83
2023-04-21T00:08:32.576Z,11.13
2023-04-21T00:11:00.965Z,12.43
2023-04-21T00:13:29.428Z,9.23
2023-04-21T00:15:57.874Z,11.57
2023-04-21T00:18:27.789Z,9.83
2023-04-21T00:20:56.435Z,11.30
2023-04-21T00:23:24.918Z,11.83
2023-04-21T00:25:54.688Z,10.73
2023-04-21T00:28:24.254Z,10.17
2023-04-21T00:30:54.410Z,9.27
2023-04-21T00:33:22.844Z,10.77
2023-04-21T00:35:51.282Z,10.23
2023-04-21T00:38:19.711Z,11.53
2023-04-21T00:40:48.123Z,10.20
2023-04-21T00:43:17.948Z,10.07
2023-04-21T00:45:47.321Z,10.87
2023-04-21T00:48:15.755Z,11.37
2023-04-21T00:50:44.233Z,10.43
2023-04-21T00:53:13.073Z,12.53
2023-04-21T00:55:41.525Z,10.40
2023-04-21T00:58:09.970Z,10.50
2023-04-21T01:00:40.098Z,12.67
2023-04-21T01:03:09.018Z,10.97
2023-04-21T01:05:37.972Z,10.53
2023-04-21T01:08:08.225Z,11.63
2023-04-21T01:10:36.664Z,12.43
2023-04-21T01:13:05.132Z,10.23
2023-04-21T01:15:33.891Z,10.47
2023-04-21T01:18:03.753Z,10.60
2023-04-21T01:20:32.236Z,10.47
2023-04-21T01:23:02.272Z,10.60
2023-04-21T01:25:30.692Z,11.07
2023-04-21T01:27:59.144Z,11.40
2023-04-21T01:30:27.702Z,11.33
2023-04-21T01:32:58.696Z,11.20
2023-04-21T01:35:27.364Z,11.60
2023-04-21T01:37:55.837Z,11.90
2023-04-21T01:40:25.640Z,11.27
2023-04-21T01:42:54.104Z,13.20
2023-04-21T01:45:22.507Z,11.97
2023-04-21T01:47:50.959Z,12.10
2023-04-21T01:50:19.542Z,14.50
2023-04-21T01:52:47.956Z,12.70
2023-04-21T01:55:16.447Z,11.70
2023-04-21T01:57:46.368Z,12.27
2023-04-21T02:00:15.261Z,13.10
2023-04-21T02:02:44.064Z,13.10
2023-04-21T02:05:12.630Z,12.00
2023-04-21T02:07:41.023Z,10.97
2023-04-21T02:10:09.765Z,11.67
2023-04-21T02:12:38.204Z,12.20
2023-04-21T02:15:09.093Z,14.23
2023-04-21T02:17:37.613Z,12.20
2023-04-21T02:20:06.976Z,11.77
2023-04-21T02:22:35.465Z,12.20
2023-04-21T02:25:04.021Z,12.10
2023-04-21T02:27:32.449Z,14.00
2023-04-21T02:30:01.057Z,12.67
2023-04-21T02:32:31.794Z,13.03
2023-04-21T02:35:00.335Z,12.30
2023-04-21T02:37:28.718Z,14.00
2023-04-21T02:39:57.105Z,13.07
2023-04-21T02:42:25.846Z,11.23
2023-04-21T02:44:54.258Z,12.43
2023-04-21T02:47:22.710Z,13.37
2023-04-21T02:49:52.550Z,11.57
2023-04-21T02:52:20.983Z,13.17
2023-04-21T02:54:49.459Z,11.90
2023-04-21T02:57:17.891Z,12.83
2023-04-21T02:59:46.295Z,13.47
2023-04-21T03:02:14.806Z,12.27
2023-04-21T03:04:43.310Z,13.20
2023-04-21T03:07:15.522Z,11.47
2023-04-21T03:09:44.029Z,13.17
2023-04-21T03:12:12.469Z,11.50
2023-04-21T03:14:40.876Z,14.03
2023-04-21T03:17:09.287Z,11.10
2023-04-21T03:19:37.755Z,12.93
2023-04-21T03:22:06.512Z,11.60
2023-04-21T03:24:36.784Z,12.30
2023-04-21T03:27:08.320Z,12.70
2023-04-21T03:29:38.331Z,12.53
2023-04-21T03:32:06.848Z,12.23
2023-04-21T03:34:35.300Z,11.33
2023-04-21T03:37:03.726Z,11.13
2023-04-21T03:39:32.157Z,12.00
2023-04-21T03:42:02.482Z,11.30
2023-04-21T03:44:31.207Z,12.57
2023-04-21T03:46:59.674Z,10.27
2023-04-21T03:49:28.134Z,11.90
2023-04-21T03:51:56.591Z,12.03
2023-04-21T03:54:24.984Z,11.30
2023-04-21T03:56:53.599Z,12.80
2023-04-21T03:59:23.422Z,11.23
2023-04-21T04:01:51.822Z,12.47
2023-04-21T04:04:20.377Z,11.17
2023-04-21T04:06:49.109Z,11.53
2023-04-21T04:09:17.658Z,10.47
2023-04-21T04:11:46.164Z,10.13
2023-04-21T04:14:14.579Z,9.93
2023-04-21T04:16:44.409Z,9.43
2023-04-21T04:19:13.548Z,10.10
2023-04-21T04:21:42.009Z,11.33
2023-04-21T04:24:11.556Z,10.77
2023-04-21T04:26:40.889Z,9.87
2023-04-21T04:29:10.636Z,10.73
2023-04-21T04:31:39.369Z,10.47
2023-04-21T04:34:09.725Z,8.93
2023-04-21T04:36:38.160Z,10.20
2023-04-21T04:39:08.976Z,10.57
2023-04-21T04:41:38.153Z,9.20
2023-04-21T04:44:06.708Z,9.73
2023-04-21T04:46:35.303Z,9.80
2023-04-21T04:49:03.926Z,10.50
2023-04-21T04:51:34.019Z,9.30
2023-04-21T04:54:02.444Z,9.50
2023-04-21T04:56:31.996Z,10.60
2023-04-21T04:59:00.763Z,9.30
2023-04-21T05:01:30.917Z,9.47
2023-04-21T05:03:59.766Z,8.63
2023-04-21T05:06:28.538Z,8.67
2023-04-21T05:08:58.343Z,9.43
2023-04-21T05:11:26.769Z,8.63
2023-04-21T05:13:55.248Z,8.83
2023-04-21T05:16:23.688Z,8.63
2023-04-21T05:18:54.038Z,9.87
2023-04-21T05:21:27.825Z,9.20
2023-04-21T05:23:58.083Z,8.67
2023-04-21T05:26:27.624Z,9.43
2023-04-21T05:28:57.076Z,8.30
2023-04-21T05:31:25.660Z,10.23
2023-04-21T05:33:54.136Z,7.53
2023-04-21T05:36:24.909Z,8.33
2023-04-21T05:38:54.150Z,9.60
2023-04-21T05:41:24.036Z,9.70
2023-04-21T05:43:52.498Z,9.77
2023-04-21T05:46:20.972Z,8.03
2023-04-21T05:48:49.481Z,9.03
2023-04-21T05:51:17.942Z,9.93
2023-04-21T05:53:47.031Z,8.37
2023-04-21T05:56:15.564Z,8.53
2023-04-21T05:58:45.635Z,7.67
2023-04-21T06:01:15.504Z,7.53
2023-04-21T06:03:44.055Z,8.17
2023-04-21T06:06:13.317Z,8.23
2023-04-21T06:08:41.742Z,7.37
2023-04-21T06:11:10.238Z,8.23
2023-04-21T06:13:39.815Z,9.67
2023-04-21T06:16:10.975Z,9.40
2023-04-21T06:18:39.431Z,9.00
2023-04-21T06:21:07.900Z,10.40
2023-04-21T06:23:36.312Z,9.10
2023-04-21T06:26:06.954Z,9.00
2023-04-21T06:28:36.009Z,9.37
2023-04-21T06:31:07.972Z,8.43
2023-04-21T06:33:38.872Z,9.20
2023-04-21T06:36:07.833Z,9.67
2023-04-21T06:38:36.471Z,11.30
2023-04-21T06:41:05.712Z,9.37
2023-04-21T06:43:34.095Z,9.60
2023-04-21T06:46:02.656Z,8.37
2023-04-21T06:48:31.198Z,9.67
2023-04-21T06:51:02.713Z,12.50
2023-04-21T06:53:31.317Z,9.80
2023-04-21T06:55:59.789Z,8.80
2023-04-21T06:58:28.198Z,10.63
2023-04-21T07:00:56.622Z,10.50
2023-04-21T07:03:25.408Z,6.90
2023-04-21T07:05:53.923Z,9.23
2023-04-21T07:08:23.715Z,12.20
2023-04-21T07:10:52.314Z,9.40
2023-04-21T07:13:20.785Z,11.03
2023-04-21T07:15:49.196Z,13.17
2023-04-21T07:18:17.672Z,10.50
2023-04-21T07:20:46.279Z,10.97
2023-04-21T07:23:14.731Z,9.90
2023-04-21T07:25:44.603Z,11.23
2023-04-21T07:28:15.136Z,10.70
2023-04-21T07:30:43.717Z,8.93
2023-04-21T07:33:12.288Z,13.67
2023-04-21T07:35:40.759Z,14.77
2023-04-21T07:38:09.164Z,8.97
2023-04-21T07:40:37.627Z,9.93
2023-04-21T07:43:07.399Z,11.20
2023-04-21T07:45:35.811Z,10.03
2023-04-21T07:48:06.181Z,9.03
2023-04-21T07:50:35.659Z,10.73
2023-04-21T07:53:04.086Z,11.00
2023-04-21T07:55:32.591Z,9.60
2023-04-21T07:58:01.004Z,10.10
2023-04-21T08:00:30.863Z,6.53
2023-04-21T08:02:59.446Z,9.43
2023-04-21T08:05:31.362Z,12.17
2023-04-21T08:08:02.076Z,8.80
2023-04-21T08:10:30.623Z,6.53
2023-04-21T08:12:59.110Z,8.40
2023-04-21T08:15:27.575Z,8.80
2023-04-21T08:17:57.401Z,8.83
2023-04-21T08:20:25.928Z,7.80
2023-04-21T08:22:54.386Z,7.10
2023-04-21T08:25:22.965Z,7.22
2023-04-21T08:27:52.329Z,12.07
2023-04-21T08:30:20.802Z,8.60
2023-04-21T08:32:49.245Z,7.45
2023-04-21T08:35:19.142Z,6.43
2023-04-21T08:37:47.623Z,7.55
2023-04-21T08:40:16.224Z,8.88
2023-04-21T08:42:44.679Z,9.18
2023-04-21T08:45:13.544Z,8.68
2023-04-21T08:47:42.917Z,8.05
2023-04-21T08:50:14.406Z,5.85
2023-04-21T08:52:44.812Z,9.27
2023-04-21T08:55:13.591Z,7.75
2023-04-21T08:57:42.068Z,8.10
2023-04-21T09:00:11.129Z,7.85
2023-04-21T09:03:00.251Z,7.10
2023-04-21T09:05:31.078Z,8.05
2023-04-21T09:08:10.942Z,8.80
2023-04-21T09:10:46.387Z,7.82
2023-04-21T09:13:14.991Z,8.10
2023-04-21T09:15:43.577Z,8.60
2023-04-21T09:18:15.814Z,9.52
2023-04-21T09:20:44.514Z,8.95
2023-04-21T09:23:14.385Z,7.05
2023-04-21T09:25:43.371Z,7.63
2023-04-21T09:28:13.248Z,10.15
2023-04-21T09:30:42.910Z,9.50
2023-04-21T09:33:28.029Z,8.25
2023-04-21T09:36:03.063Z,8.88
2023-04-21T09:38:32.999Z,8.30
2023-04-21T09:41:01.601Z,9.10
2023-04-21T09:43:30.297Z,7.43
2023-04-21T09:46:00.025Z,8.98
2023-04-21T09:48:30.840Z,6.75
2023-04-21T09:53:35.205Z,9.07
2023-04-21T09:56:04.390Z,8.25
2023-04-21T09:58:36.131Z,8.23
2023-04-21T10:01:05.000Z,7.72
2023-04-21T10:03:34.068Z,7.97
2023-04-21T10:06:02.678Z,9.05
2023-04-21T10:08:31.341Z,7.68
2023-04-21T10:11:01.648Z,7.75
2023-04-21T10:13:30.356Z,7.13
2023-04-21T10:16:05.328Z,8.52
2023-04-21T10:18:33.771Z,8.98
2023-04-21T10:21:03.962Z,7.85
2023-04-21T10:23:33.447Z,6.50
2023-04-21T10:26:11.262Z,7.75
2023-04-21T10:28:44.923Z,7.43
2023-04-21T10:31:20.464Z,10.15
2023-04-21T10:34:07.762Z,9.32
2023-04-21T10:36:36.634Z,8.38
2023-04-21T10:39:05.706Z,6.70
2023-04-21T10:41:36.002Z,7.30
2023-04-21T10:44:13.449Z,6.40
2023-04-21T10:46:42.569Z,9.48
2023-04-21T10:49:11.957Z,7.55
2023-04-21T10:51:59.054Z,8.00
2023-04-21T10:54:27.625Z,5.72
2023-04-21T10:56:58.083Z,6.15
2023-04-21T10:59:27.151Z,6.75
2023-04-21T11:01:56.578Z,7.05
2023-04-21T11:04:25.317Z,6.50
2023-04-21T11:07:07.515Z,7.85
2023-04-21T11:09:36.064Z,6.75
2023-04-21T11:12:07.480Z,6.93
2023-04-21T11:14:37.102Z,6.80
2023-04-21T11:17:06.046Z,7.43
2023-04-21T11:19:34.516Z,6.53
2023-04-21T11:22:02.970Z,7.60
2023-04-21T11:24:31.435Z,8.65
2023-04-21T11:27:01.255Z,7.50
2023-04-21T11:29:31.546Z,7.07
2023-04-21T11:32:00.725Z,9.07
2023-04-21T11:34:29.144Z,8.38
2023-04-21T11:36:57.591Z,9.20
2023-04-21T11:39:26.053Z,8.70
2023-04-21T11:41:54.589Z,8.50
2023-04-21T11:44:35.039Z,8.35
2023-04-21T11:47:14.017Z,8.90
2023-04-21T11:49:48.918Z,7.80
2023-04-21T11:52:27.350Z,6.60
2023-04-21T11:54:57.604Z,6.60
2023-04-21T11:57:26.509Z,6.78
2023-04-21T11:59:56.428Z,7.45
2023-04-21T12:02:28.625Z,7.15
2023-04-21T12:05:04.371Z,6.65
2023-04-21T12:07:33.362Z,6.85
2023-04-21T12:10:02.894Z,6.88
2023-04-21T12:12:31.666Z,8.10
2023-04-21T12:15:04.601Z,6.20
2023-04-21T12:17:36.947Z,6.50
2023-04-21T12:20:07.210Z,6.95
2023-04-21T12:22:35.803Z,7.07
2023-04-21T12:25:04.182Z,7.68
2023-04-21T12:27:32.755Z,7.97
2023-04-21T12:30:03.308Z,7.78
2023-04-21T12:32:31.811Z,7.40
2023-04-21T12:35:00.696Z,7.28
2023-04-21T12:37:29.220Z,6.30
2023-04-21T12:39:57.650Z,7.32
2023-04-21T12:42:26.102Z,7.03
2023-04-21T12:44:54.520Z,8.13
2023-04-21T12:47:24.941Z,8.00
2023-04-21T12:49:53.513Z,7.20
2023-04-21T12:52:21.922Z,7.55
2023-04-21T12:54:50.333Z,7.55
2023-04-21T12:57:18.882Z,7.97
2023-04-21T12:59:47.360Z,6.93
2023-04-21T13:02:15.899Z,8.25
2023-04-21T13:04:46.019Z,6.53
2023-04-21T13:07:16.124Z,6.95
2023-04-21T13:09:44.629Z,6.85
2023-04-21T13:12:13.036Z,6.93
2023-04-21T13:14:41.429Z,7.45
2023-04-21T13:17:09.893Z,8.77
2023-04-21T13:19:38.693Z,6.90
2023-04-21T13:22:08.676Z,7.97
2023-04-21T13:24:37.096Z,6.47
2023-04-21T13:27:05.566Z,7.28
2023-04-21T13:29:34.917Z,6.78
2023-04-21T13:32:03.417Z,8.98
2023-04-21T13:34:32.691Z,6.15
2023-04-21T13:37:01.396Z,8.45
2023-04-21T13:39:31.550Z,7.53
2023-04-21T13:42:00.188Z,7.85
2023-04-21T13:44:28.626Z,7.43
2023-04-21T13:46:57.400Z,7.65
2023-04-21T13:49:25.899Z,7.03
2023-04-21T13:51:54.324Z,6.60
2023-04-21T13:54:22.741Z,6.80
2023-04-21T13:56:53.239Z,6.47
2023-04-21T13:59:21.867Z,7.65
2023-04-21T14:01:50.332Z,8.15
2023-04-21T14:04:20.846Z,8.30
2023-04-21T14:06:50.766Z,6.75
2023-04-21T14:09:19.212Z,8.38
2023-04-21T14:11:47.619Z,7.05
2023-04-21T14:14:27.639Z,8.63
2023-04-21T14:17:05.903Z,8.60
2023-04-21T14:19:34.769Z,7.47
2023-04-21T14:22:03.620Z,6.85
2023-04-21T14:24:32.594Z,8.57
2023-04-21T14:27:01.473Z,8.10
2023-04-21T14:29:31.578Z,7.60
2023-04-21T14:32:00.253Z,7.47
2023-04-21T14:34:28.757Z,7.00
2023-04-21T14:36:57.278Z,6.90
2023-04-21T14:39:25.754Z,7.82
2023-04-21T14:41:54.175Z,6.15
2023-04-21T14:44:22.632Z,7.20
2023-04-21T14:47:01.454Z,6.55
2023-04-21T14:49:37.489Z,7.63
2023-04-21T14:52:07.124Z,6.10
2023-04-21T14:54:35.681Z,6.95
2023-04-21T14:57:18.673Z,6.75
2023-04-21T14:59:48.801Z,7.05
2023-04-21T15:02:19.062Z,6.85
2023-04-21T15:04:47.766Z,8.95
2023-04-21T15:07:19.902Z,8.23
2023-04-21T15:09:52.120Z,8.18
2023-04-21T15:12:20.698Z,6.53
2023-04-21T15:14:49.135Z,11.10
2023-04-21T15:17:19.066Z,7.05
2023-04-21T15:19:47.495Z,7.63
2023-04-21T15:22:16.195Z,6.72
2023-04-21T15:24:44.623Z,7.47
2023-04-21T15:27:13.196Z,7.30
2023-04-21T15:29:41.938Z,6.85
2023-04-21T15:32:10.438Z,9.55
2023-04-21T15:34:40.347Z,8.95
2023-04-21T15:37:08.788Z,8.07
2023-04-21T15:39:37.512Z,7.57
2023-04-21T15:42:06.402Z,7.53
2023-04-21T15:44:34.955Z,9.25
2023-04-21T15:47:03.554Z,8.38
2023-04-21T15:49:32.010Z,9.10
2023-04-21T15:52:01.909Z,6.95
2023-04-21T15:54:31.231Z,7.07
2023-04-21T15:56:59.701Z,9.60
2023-04-21T15:59:28.102Z,23.70
2023-04-21T16:01:57.922Z,18.38
2023-04-21T16:04:26.673Z,12.18
2023-04-21T16:06:55.183Z,11.13
2023-04-21T16:09:24.963Z,8.65
2023-04-21T16:11:53.486Z,9.07
2023-04-21T16:14:21.927Z,11.15
2023-04-21T16:16:50.539Z,10.30
2023-04-21T16:19:19.005Z,8.38
2023-04-21T16:21:47.596Z,7.18
2023-04-21T16:24:16.064Z,7.50
2023-04-21T16:26:45.905Z,7.75
2023-04-21T16:29:14.472Z,8.73
2023-04-21T16:31:42.954Z,8.35
2023-04-21T16:34:13.938Z,9.15
2023-04-21T16:36:42.560Z,6.45
2023-04-21T16:39:11.082Z,8.25
2023-04-21T16:41:39.505Z,6.97
2023-04-21T16:44:09.334Z,7.32
2023-04-21T16:46:37.827Z,6.63
2023-04-21T16:49:06.542Z,8.65
2023-04-21T16:51:35.001Z,6.88
2023-04-21T16:54:03.429Z,8.43
2023-04-21T16:56:31.874Z,7.68
2023-04-21T16:59:00.285Z,8.80
2023-04-21T17:01:30.154Z,8.88
2023-04-21T17:03:59.097Z,10.23
2023-04-21T17:06:27.639Z,9.70
2023-04-21T17:08:59.862Z,9.27
2023-04-21T17:11:29.944Z,9.80
2023-04-21T17:13:58.354Z,8.73
2023-04-21T17:16:26.915Z,9.40
2023-04-21T17:18:57.639Z,9.63
2023-04-21T17:21:27.416Z,8.50
2023-04-21T17:23:55.877Z,9.35
2023-04-21T17:26:24.248Z,9.65
2023-04-21T17:28:52.910Z,9.55
2023-04-21T17:31:21.488Z,9.40
2023-04-21T17:33:52.513Z,8.73
2023-04-21T17:36:22.410Z,9.02
2023-04-21T17:38:51.047Z,11.00
2023-04-21T17:41:20.051Z,9.60
2023-04-21T17:43:48.467Z,9.63
2023-04-21T17:46:16.992Z,8.68
2023-04-21T17:48:45.828Z,8.38
2023-04-21T17:51:14.846Z,8.75
2023-04-21T17:53:44.666Z,8.90
2023-04-21T17:56:14.436Z,8.88
2023-04-21T17:58:42.891Z,12.73
2023-04-21T18:01:11.347Z,11.63
2023-04-21T18:03:41.412Z,11.75
2023-04-21T18:06:11.766Z,11.48
2023-04-21T18:08:40.230Z,12.40
2023-04-21T18:11:11.505Z,12.38
2023-04-21T18:13:39.970Z,12.43
2023-04-21T18:16:08.715Z,11.13
2023-04-21T18:18:37.406Z,10.77
2023-04-21T18:21:05.987Z,11.77
2023-04-21T18:23:34.768Z,10.37
2023-04-21T18:26:03.191Z,10.60
2023-04-21T18:28:33.094Z,11.07
2023-04-21T18:31:01.737Z,11.23
2023-04-21T18:33:30.652Z,10.13
2023-04-21T18:35:59.682Z,11.53
2023-04-21T18:38:28.086Z,11.53
2023-04-21T18:40:57.165Z,11.73
2023-04-21T18:43:25.949Z,12.47
2023-04-21T18:45:55.782Z,12.47
2023-04-21T18:48:24.199Z,12.07
2023-04-21T18:50:52.677Z,12.67
2023-04-21T18:53:21.105Z,12.57
2023-04-21T18:55:49.507Z,12.87
2023-04-21T18:58:18.110Z,11.50
2023-04-21T19:00:46.519Z,11.50
2023-04-21T19:03:16.620Z,12.43
2023-04-21T19:05:45.113Z,11.37
2023-04-21T19:08:13.502Z,10.37
2023-04-21T19:10:42.721Z,10.53
2023-04-21T19:13:12.432Z,10.47
2023-04-21T19:15:40.906Z,9.90
2023-04-21T19:18:09.389Z,10.07
2023-04-21T19:20:39.274Z,10.07
2023-04-21T19:23:07.686Z,11.53
2023-04-21T19:25:37.561Z,10.27
2023-04-21T19:28:06.575Z,10.53
2023-04-21T19:30:35.072Z,9.67
2023-04-21T19:33:05.302Z,11.10
2023-04-21T19:35:34.034Z,10.03
2023-04-21T19:38:03.807Z,9.53
2023-04-21T19:40:32.211Z,10.67
2023-04-21T19:43:01.916Z,12.10
2023-04-21T19:45:30.405Z,13.53
2023-04-21T19:47:58.871Z,14.63
2023-04-21T19:50:27.539Z,14.50
2023-04-21T19:52:55.945Z,14.53
2023-04-21T19:55:25.768Z,15.43
2023-04-21T19:57:54.207Z,16.97
2023-04-21T20:00:22.799Z,17.00
2023-04-21T20:02:51.423Z,19.07
2023-04-21T20:05:20.017Z,18.47
2023-04-21T20:07:49.043Z,16.90
2023-04-21T20:10:17.617Z,16.40
2023-04-21T20:12:47.480Z,18.90
2023-04-21T20:15:17.024Z,17.43
2023-04-21T20:17:47.554Z,17.67
2023-04-21T20:20:16.361Z,19.03
2023-04-21T20:22:44.844Z,20.43
2023-04-21T20:25:13.635Z,18.37
2023-04-21T20:27:42.107Z,19.40
2023-04-21T20:30:12.317Z,19.63
2023-04-21T20:32:41.050Z,18.97
2023-04-21T20:35:11.801Z,18.60
2023-04-21T20:37:41.096Z,19.00
2023-04-21T20:40:11.751Z,20.73
2023-04-21T20:42:40.287Z,21.03
2023-04-21T20:45:09.452Z,22.87
2023-04-21T20:47:39.327Z,24.23
2023-04-21T20:50:08.405Z,22.87
2023-04-21T20:52:37.020Z,19.60
2023-04-21T20:55:05.514Z,22.10
2023-04-21T20:57:34.358Z,21.60
2023-04-21T21:00:05.529Z,22.80
2023-04-21T21:02:34.237Z,26.07
2023-04-21T21:05:04.336Z,22.07
2023-04-21T21:07:32.786Z,22.93
2023-04-21T21:10:01.206Z,24.33
2023-04-21T21:12:29.629Z,25.40
2023-04-21T21:14:58.043Z,21.37
2023-04-21T21:17:26.569Z,24.17
2023-04-21T21:19:55.035Z,21.53
2023-04-21T21:22:24.830Z,22.97
2023-04-21T21:24:53.218Z,22.33
2023-04-21T21:27:21.690Z,21.20
2023-04-21T21:29:50.270Z,22.57
2023-04-21T21:32:18.992Z,22.20
2023-04-21T21:34:47.573Z,22.40
2023-04-21T21:37:16.248Z,21.90
2023-04-21T21:39:46.051Z,23.60
2023-04-21T21:42:14.515Z,21.17
2023-04-21T21:44:42.911Z,21.37
2023-04-21T21:47:11.319Z,20.70
2023-04-21T21:49:40.030Z,21.20
2023-04-21T21:52:08.587Z,20.10
2023-04-21T21:54:37.329Z,20.03
2023-04-21T21:57:07.214Z,18.83
2023-04-21T21:59:35.843Z,18.50
2023-04-21T22:02:04.706Z,20.53
2023-04-21T22:04:33.710Z,19.03
2023-04-21T22:07:02.148Z,20.33
2023-04-21T22:09:30.549Z,21.00
2023-04-21T22:11:59.055Z,18.00
2023-04-21T22:14:29.920Z,19.03
2023-04-21T22:16:59.043Z,18.63
2023-04-21T22:19:27.492Z,21.67
2023-04-21T22:21:56.327Z,21.00
2023-04-21T22:24:25.044Z,20.90
2023-04-21T22:26:53.498Z,21.10
2023-04-21T22:29:22.282Z,19.23
2023-04-21T22:31:52.123Z,23.37
2023-04-21T22:34:20.745Z,20.07
2023-04-21T22:36:49.136Z,21.23
2023-04-21T22:39:17.561Z,19.67
2023-04-21T22:41:46.015Z,19.33
2023-04-21T22:44:14.602Z,18.13
2023-04-21T22:46:43.311Z,18.50
2023-04-21T22:49:13.153Z,19.93
2023-04-21T22:51:42.317Z,20.20
2023-04-21T22:54:10.812Z,19.60
2023-04-21T22:56:39.346Z,20.20
2023-04-21T22:59:08.327Z,20.83
2023-04-21T23:01:36.915Z,20.90
2023-04-21T23:04:05.464Z,20.43
2023-04-21T23:06:35.355Z,20.67
2023-04-21T23:09:04.173Z,21.77
2023-04-21T23:11:32.889Z,22.03
2023-04-21T23:14:01.316Z,20.67
2023-04-21T23:16:29.746Z,20.37
2023-04-21T23:18:58.183Z,20.07
2023-04-21T23:21:26.687Z,19.93
2023-04-21T23:23:56.562Z,20.57
2023-04-21T23:26:25.024Z,19.17
2023-04-21T23:28:53.493Z,19.50
2023-04-21T23:31:22.041Z,19.63
2023-04-21T23:33:50.471Z,21.73
2023-04-21T23:36:18.841Z,21.67
2023-04-21T23:38:47.276Z,23.60
2023-04-21T23:41:17.108Z,21.67
2023-04-21T23:43:45.530Z,22.53
2023-04-21T23:46:15.108Z,21.37
2023-04-21T23:48:43.653Z,20.63
2023-04-21T23:51:12.324Z,22.27
2023-04-21T23:53:40.852Z,21.77
2023-04-21T23:56:09.470Z,22.40
2023-04-21T23:58:39.289Z,19.93
